sensor_id;sensor_type;location;lat;lon;timestamp;temperature;humidity
530;DHT22;251;48.704;9.210;2023-05-29T00:00:27;11.80;32.80
530;DHT22;251;48.704;9.210;2023-05-29T00:02:54;11.70;32.30
530;DHT22;251;48.704;9.210;2023-05-29T00:05:21;12.00;33.90
530;DHT22;251;48.704;9.210;2023-05-29T00:07:49;11.70;33.10
530;DHT22;251;48.704;9.210;2023-05-29T00:10:16;11.60;35.00
530;DHT22;251;48.704;9.210;2023-05-29T00:12:43;11.80;34.10
530;DHT22;251;48.704;9.210;2023-05-29T00:15:10;11.80;35.20
530;DHT22;251;48.704;9.210;2023-05-29T00:17:38;11.50;34.20
530;DHT22;251;48.704;9.210;2023-05-29T00:20:06;11.30;34.30
530;DHT22;251;48.704;9.210;2023-05-29T00:22:35;11.10;34.50
530;DHT22;251;48.704;9.210;2023-05-29T00:25:05;11.30;35.10
530;DHT22;251;48.704;9.210;2023-05-29T00:27:32;11.20;35.40
530;DHT22;251;48.704;9.210;2023-05-29T00:29:59;11.10;36.00
530;DHT22;251;48.704;9.210;2023-05-29T00:32:26;11.50;35.90
530;DHT22;251;48.704;9.210;2023-05-29T00:34:53;11.20;36.30
530;DHT22;251;48.704;9.210;2023-05-29T00:37:20;11.30;37.20
530;DHT22;251;48.704;9.210;2023-05-29T00:39:48;11.10;35.50
530;DHT22;251;48.704;9.210;2023-05-29T00:42:16;11.10;36.60
530;DHT22;251;48.704;9.210;2023-05-29T00:44:43;10.90;35.90
530;DHT22;251;48.704;9.210;2023-05-29T00:47:10;10.90;37.30
530;DHT22;251;48.704;9.210;2023-05-29T00:49:37;10.90;36.20
530;DHT22;251;48.704;9.210;2023-05-29T00:52:05;11.10;37.20
530;DHT22;251;48.704;9.210;2023-05-29T00:54:34;11.10;37.40
530;DHT22;251;48.704;9.210;2023-05-29T00:57:02;10.70;36.60
530;DHT22;251;48.704;9.210;2023-05-29T00:59:34;10.90;36.30
530;DHT22;251;48.704;9.210;2023-05-29T01:02:02;10.90;37.00
530;DHT22;251;48.704;9.210;2023-05-29T01:04:29;10.60;36.50
530;DHT22;251;48.704;9.210;2023-05-29T01:06:59;11.00;38.20
530;DHT22;251;48.704;9.210;2023-05-29T01:09:28;10.90;37.70
530;DHT22;251;48.704;9.210;2023-05-29T01:12:02;10.80;37.90
530;DHT22;251;48.704;9.210;2023-05-29T01:14:41;10.80;38.40
530;DHT22;251;48.704;9.210;2023-05-29T01:17:16;10.90;39.20
530;DHT22;251;48.704;9.210;2023-05-29T01:20:03;10.70;39.10
530;DHT22;251;48.704;9.210;2023-05-29T01:22:46;10.80;39.20
530;DHT22;251;48.704;9.210;2023-05-29T01:25:19;10.30;38.80
530;DHT22;251;48.704;9.210;2023-05-29T01:27:49;10.60;39.50
530;DHT22;251;48.704;9.210;2023-05-29T01:30:18;10.30;39.40
530;DHT22;251;48.704;9.210;2023-05-29T01:32:46;10.50;40.20
530;DHT22;251;48.704;9.210;2023-05-29T01:35:13;10.50;41.10
530;DHT22;251;48.704;9.210;2023-05-29T01:37:40;10.40;41.20
530;DHT22;251;48.704;9.210;2023-05-29T01:40:08;10.20;40.40
530;DHT22;251;48.704;9.210;2023-05-29T01:42:36;10.30;40.20
530;DHT22;251;48.704;9.210;2023-05-29T01:45:06;10.50;40.70
530;DHT22;251;48.704;9.210;2023-05-29T01:47:34;10.20;40.70
530;DHT22;251;48.704;9.210;2023-05-29T01:50:03;10.40;41.60
530;DHT22;251;48.704;9.210;2023-05-29T01:52:30;10.40;41.10
530;DHT22;251;48.704;9.210;2023-05-29T01:54:57;10.30;40.80
530;DHT22;251;48.704;9.210;2023-05-29T01:57:24;10.30;40.90
530;DHT22;251;48.704;9.210;2023-05-29T01:59:52;9.80;43.00
530;DHT22;251;48.704;9.210;2023-05-29T02:02:21;10.10;42.10
530;DHT22;251;48.704;9.210;2023-05-29T02:04:48;10.10;42.20
530;DHT22;251;48.704;9.210;2023-05-29T02:07:15;10.00;41.60
530;DHT22;251;48.704;9.210;2023-05-29T02:09:42;10.00;42.20
530;DHT22;251;48.704;9.210;2023-05-29T02:12:09;9.90;43.40
530;DHT22;251;48.704;9.210;2023-05-29T02:14:35;9.90;43.40
530;DHT22;251;48.704;9.210;2023-05-29T02:17:02;9.60;44.40
530;DHT22;251;48.704;9.210;2023-05-29T02:19:31;10.00;44.60
530;DHT22;251;48.704;9.210;2023-05-29T02:21:59;9.90;44.90
530;DHT22;251;48.704;9.210;2023-05-29T02:24:26;9.50;44.50
530;DHT22;251;48.704;9.210;2023-05-29T02:26:53;9.80;47.30
530;DHT22;251;48.704;9.210;2023-05-29T02:29:20;9.70;47.30
530;DHT22;251;48.704;9.210;2023-05-29T02:31:46;9.70;46.50
530;DHT22;251;48.704;9.210;2023-05-29T02:34:13;9.60;45.60
530;DHT22;251;48.704;9.210;2023-05-29T02:36:42;9.80;47.10
530;DHT22;251;48.704;9.210;2023-05-29T02:39:09;9.80;44.70
530;DHT22;251;48.704;9.210;2023-05-29T02:41:37;9.60;46.20
530;DHT22;251;48.704;9.210;2023-05-29T02:44:04;9.40;47.10
530;DHT22;251;48.704;9.210;2023-05-29T02:46:31;9.30;46.90
530;DHT22;251;48.704;9.210;2023-05-29T02:48:58;9.40;46.90
530;DHT22;251;48.704;9.210;2023-05-29T02:51:25;9.30;46.40
530;DHT22;251;48.704;9.210;2023-05-29T02:53:54;9.30;45.90
530;DHT22;251;48.704;9.210;2023-05-29T02:56:21;9.30;46.20
530;DHT22;251;48.704;9.210;2023-05-29T02:58:49;9.30;46.20
530;DHT22;251;48.704;9.210;2023-05-29T03:01:16;9.40;47.00
530;DHT22;251;48.704;9.210;2023-05-29T03:03:43;9.40;47.10
530;DHT22;251;48.704;9.210;2023-05-29T03:06:11;9.30;46.60
530;DHT22;251;48.704;9.210;2023-05-29T03:08:39;9.20;47.20
530;DHT22;251;48.704;9.210;2023-05-29T03:11:08;9.20;47.00
530;DHT22;251;48.704;9.210;2023-05-29T03:13:36;9.00;48.00
530;DHT22;251;48.704;9.210;2023-05-29T03:16:06;8.90;47.30
530;DHT22;251;48.704;9.210;2023-05-29T03:18:34;9.00;48.00
530;DHT22;251;48.704;9.210;2023-05-29T03:21:02;9.00;49.10
530;DHT22;251;48.704;9.210;2023-05-29T03:23:32;8.90;50.50
530;DHT22;251;48.704;9.210;2023-05-29T03:25:59;9.00;49.00
530;DHT22;251;48.704;9.210;2023-05-29T03:28:28;9.00;48.90
530;DHT22;251;48.704;9.210;2023-05-29T03:30:55;9.00;49.70
530;DHT22;251;48.704;9.210;2023-05-29T03:33:22;8.90;49.60
530;DHT22;251;48.704;9.210;2023-05-29T03:36:12;9.00;49.80
530;DHT22;251;48.704;9.210;2023-05-29T03:38:40;8.90;49.80
530;DHT22;251;48.704;9.210;2023-05-29T03:41:07;9.00;50.60
530;DHT22;251;48.704;9.210;2023-05-29T03:43:36;8.60;49.30
530;DHT22;251;48.704;9.210;2023-05-29T03:46:03;8.90;51.20
530;DHT22;251;48.704;9.210;2023-05-29T03:48:31;8.90;50.80
530;DHT22;251;48.704;9.210;2023-05-29T03:50:58;8.90;50.30
530;DHT22;251;48.704;9.210;2023-05-29T03:53:33;8.90;50.00
530;DHT22;251;48.704;9.210;2023-05-29T03:55:59;9.00;50.90
530;DHT22;251;48.704;9.210;2023-05-29T03:58:27;8.90;51.20
530;DHT22;251;48.704;9.210;2023-05-29T04:00:55;9.00;50.50
530;DHT22;251;48.704;9.210;2023-05-29T04:03:22;9.00;51.30
530;DHT22;251;48.704;9.210;2023-05-29T04:05:50;8.80;51.80
530;DHT22;251;48.704;9.210;2023-05-29T04:08:16;9.00;52.30
530;DHT22;251;48.704;9.210;2023-05-29T04:10:43;8.90;51.20
530;DHT22;251;48.704;9.210;2023-05-29T04:13:10;8.80;51.00
530;DHT22;251;48.704;9.210;2023-05-29T04:15:38;9.00;50.00
530;DHT22;251;48.704;9.210;2023-05-29T04:18:06;9.20;51.10
530;DHT22;251;48.704;9.210;2023-05-29T04:20:33;9.30;50.50
530;DHT22;251;48.704;9.210;2023-05-29T04:23:00;9.30;50.70
530;DHT22;251;48.704;9.210;2023-05-29T04:25:27;9.30;50.80
530;DHT22;251;48.704;9.210;2023-05-29T04:27:54;9.30;51.20
530;DHT22;251;48.704;9.210;2023-05-29T04:30:22;9.40;49.70
530;DHT22;251;48.704;9.210;2023-05-29T04:32:49;9.40;50.30
530;DHT22;251;48.704;9.210;2023-05-29T04:35:19;9.30;50.20
530;DHT22;251;48.704;9.210;2023-05-29T04:37:55;9.40;50.00
530;DHT22;251;48.704;9.210;2023-05-29T04:40:26;9.60;49.40
530;DHT22;251;48.704;9.210;2023-05-29T04:42:53;9.70;49.30
530;DHT22;251;48.704;9.210;2023-05-29T04:45:22;9.70;49.60
530;DHT22;251;48.704;9.210;2023-05-29T04:47:50;9.70;50.00
530;DHT22;251;48.704;9.210;2023-05-29T04:50:21;9.80;50.50
530;DHT22;251;48.704;9.210;2023-05-29T04:52:48;9.90;50.90
530;DHT22;251;48.704;9.210;2023-05-29T04:55:15;10.30;48.70
530;DHT22;251;48.704;9.210;2023-05-29T04:57:43;10.30;48.50
530;DHT22;251;48.704;9.210;2023-05-29T05:00:11;10.20;49.30
530;DHT22;251;48.704;9.210;2023-05-29T05:02:41;10.40;49.10
530;DHT22;251;48.704;9.210;2023-05-29T05:05:09;10.80;50.50
530;DHT22;251;48.704;9.210;2023-05-29T05:07:38;10.70;49.20
530;DHT22;251;48.704;9.210;2023-05-29T05:10:09;10.50;48.60
530;DHT22;251;48.704;9.210;2023-05-29T05:12:36;10.90;48.10
530;DHT22;251;48.704;9.210;2023-05-29T05:15:03;11.10;47.90
530;DHT22;251;48.704;9.210;2023-05-29T05:17:32;11.30;48.80
530;DHT22;251;48.704;9.210;2023-05-29T05:19:59;11.40;47.00
530;DHT22;251;48.704;9.210;2023-05-29T05:22:26;11.30;47.50
530;DHT22;251;48.704;9.210;2023-05-29T05:24:54;11.50;46.10
530;DHT22;251;48.704;9.210;2023-05-29T05:27:23;11.90;46.50
530;DHT22;251;48.704;9.210;2023-05-29T05:29:50;12.00;45.00
530;DHT22;251;48.704;9.210;2023-05-29T05:32:17;12.00;44.00
530;DHT22;251;48.704;9.210;2023-05-29T05:34:44;12.30;44.80
530;DHT22;251;48.704;9.210;2023-05-29T05:37:11;12.40;47.00
530;DHT22;251;48.704;9.210;2023-05-29T05:39:40;12.30;48.20
530;DHT22;251;48.704;9.210;2023-05-29T05:42:08;12.80;47.70
530;DHT22;251;48.704;9.210;2023-05-29T05:44:50;12.80;46.60
530;DHT22;251;48.704;9.210;2023-05-29T05:47:16;13.00;43.50
530;DHT22;251;48.704;9.210;2023-05-29T05:49:43;13.20;44.20
530;DHT22;251;48.704;9.210;2023-05-29T05:52:12;13.50;38.10
530;DHT22;251;48.704;9.210;2023-05-29T05:54:39;13.50;41.00
530;DHT22;251;48.704;9.210;2023-05-29T05:57:06;13.60;39.30
530;DHT22;251;48.704;9.210;2023-05-29T05:59:36;13.60;32.80
530;DHT22;251;48.704;9.210;2023-05-29T06:02:04;13.90;33.60
530;DHT22;251;48.704;9.210;2023-05-29T06:04:31;14.30;28.10
530;DHT22;251;48.704;9.210;2023-05-29T06:06:58;14.30;28.30
530;DHT22;251;48.704;9.210;2023-05-29T06:09:25;14.60;27.30
530;DHT22;251;48.704;9.210;2023-05-29T06:11:56;14.70;25.40
530;DHT22;251;48.704;9.210;2023-05-29T06:14:23;14.80;24.40
530;DHT22;251;48.704;9.210;2023-05-29T06:16:51;15.10;24.80
530;DHT22;251;48.704;9.210;2023-05-29T06:19:19;15.20;21.80
530;DHT22;251;48.704;9.210;2023-05-29T06:21:59;15.40;20.90
530;DHT22;251;48.704;9.210;2023-05-29T06:24:28;15.40;20.80
530;DHT22;251;48.704;9.210;2023-05-29T06:26:56;15.90;18.40
530;DHT22;251;48.704;9.210;2023-05-29T06:29:23;15.60;18.60
530;DHT22;251;48.704;9.210;2023-05-29T06:31:52;16.10;18.90
530;DHT22;251;48.704;9.210;2023-05-29T06:34:19;16.10;18.60
530;DHT22;251;48.704;9.210;2023-05-29T06:36:46;16.10;18.80
530;DHT22;251;48.704;9.210;2023-05-29T06:39:13;16.50;18.90
530;DHT22;251;48.704;9.210;2023-05-29T06:41:41;16.70;18.90
530;DHT22;251;48.704;9.210;2023-05-29T06:44:07;16.60;17.90
530;DHT22;251;48.704;9.210;2023-05-29T06:46:34;17.00;17.00
530;DHT22;251;48.704;9.210;2023-05-29T06:49:03;16.60;15.00
530;DHT22;251;48.704;9.210;2023-05-29T06:51:30;16.90;16.60
530;DHT22;251;48.704;9.210;2023-05-29T06:54:01;16.90;14.10
530;DHT22;251;48.704;9.210;2023-05-29T06:56:28;16.80;14.90
530;DHT22;251;48.704;9.210;2023-05-29T06:58:56;17.10;15.50
530;DHT22;251;48.704;9.210;2023-05-29T07:01:23;17.40;14.80
530;DHT22;251;48.704;9.210;2023-05-29T07:03:57;17.30;12.70
530;DHT22;251;48.704;9.210;2023-05-29T07:06:26;17.40;14.00
530;DHT22;251;48.704;9.210;2023-05-29T07:08:53;17.60;13.90
530;DHT22;251;48.704;9.210;2023-05-29T07:11:20;17.80;13.70
530;DHT22;251;48.704;9.210;2023-05-29T07:13:47;18.00;12.90
530;DHT22;251;48.704;9.210;2023-05-29T07:16:14;17.80;13.00
530;DHT22;251;48.704;9.210;2023-05-29T07:18:43;17.90;12.70
530;DHT22;251;48.704;9.210;2023-05-29T07:21:10;18.20;12.60
530;DHT22;251;48.704;9.210;2023-05-29T07:23:39;17.80;11.70
530;DHT22;251;48.704;9.210;2023-05-29T07:26:06;18.10;11.80
530;DHT22;251;48.704;9.210;2023-05-29T07:28:33;18.10;12.10
530;DHT22;251;48.704;9.210;2023-05-29T07:31:00;18.30;11.50
530;DHT22;251;48.704;9.210;2023-05-29T07:33:27;18.20;11.30
530;DHT22;251;48.704;9.210;2023-05-29T07:35:56;18.30;9.80
530;DHT22;251;48.704;9.210;2023-05-29T07:38:24;18.40;10.70
530;DHT22;251;48.704;9.210;2023-05-29T07:40:52;18.40;9.80
530;DHT22;251;48.704;9.210;2023-05-29T07:43:28;18.60;9.10
530;DHT22;251;48.704;9.210;2023-05-29T07:45:58;18.80;8.80
530;DHT22;251;48.704;9.210;2023-05-29T07:48:25;18.70;9.30
530;DHT22;251;48.704;9.210;2023-05-29T07:50:52;18.80;9.00
530;DHT22;251;48.704;9.210;2023-05-29T07:53:19;18.90;8.80
530;DHT22;251;48.704;9.210;2023-05-29T07:55:47;19.00;8.60
530;DHT22;251;48.704;9.210;2023-05-29T07:58:15;19.10;9.80
530;DHT22;251;48.704;9.210;2023-05-29T08:00:44;19.20;8.80
530;DHT22;251;48.704;9.210;2023-05-29T08:03:11;19.20;7.80
530;DHT22;251;48.704;9.210;2023-05-29T08:05:57;19.30;7.90
530;DHT22;251;48.704;9.210;2023-05-29T08:08:25;19.40;8.40
530;DHT22;251;48.704;9.210;2023-05-29T08:10:51;19.50;7.60
530;DHT22;251;48.704;9.210;2023-05-29T08:13:20;19.60;7.50
530;DHT22;251;48.704;9.210;2023-05-29T08:15:48;19.70;7.60
530;DHT22;251;48.704;9.210;2023-05-29T08:18:14;19.80;6.80
530;DHT22;251;48.704;9.210;2023-05-29T08:20:41;19.90;6.00
530;DHT22;251;48.704;9.210;2023-05-29T08:23:10;19.90;6.50
530;DHT22;251;48.704;9.210;2023-05-29T08:25:37;20.00;6.90
530;DHT22;251;48.704;9.210;2023-05-29T08:28:04;20.20;6.00
530;DHT22;251;48.704;9.210;2023-05-29T08:30:32;20.20;5.10
530;DHT22;251;48.704;9.210;2023-05-29T08:32:59;20.40;6.40
530;DHT22;251;48.704;9.210;2023-05-29T08:35:26;20.50;5.80
530;DHT22;251;48.704;9.210;2023-05-29T08:37:53;20.60;4.80
530;DHT22;251;48.704;9.210;2023-05-29T08:40:19;20.70;4.50
530;DHT22;251;48.704;9.210;2023-05-29T08:42:50;20.80;4.40
530;DHT22;251;48.704;9.210;2023-05-29T08:45:18;20.90;5.40
530;DHT22;251;48.704;9.210;2023-05-29T08:47:49;21.00;5.00
530;DHT22;251;48.704;9.210;2023-05-29T08:50:19;21.10;4.60
530;DHT22;251;48.704;9.210;2023-05-29T08:52:47;21.30;4.60
530;DHT22;251;48.704;9.210;2023-05-29T08:55:14;21.40;3.60
530;DHT22;251;48.704;9.210;2023-05-29T08:57:42;21.60;4.70
530;DHT22;251;48.704;9.210;2023-05-29T09:00:11;21.70;4.50
530;DHT22;251;48.704;9.210;2023-05-29T09:02:39;21.90;2.80
530;DHT22;251;48.704;9.210;2023-05-29T09:05:08;22.00;1.80
530;DHT22;251;48.704;9.210;2023-05-29T09:07:35;22.10;1.90
530;DHT22;251;48.704;9.210;2023-05-29T09:10:05;22.30;2.20
530;DHT22;251;48.704;9.210;2023-05-29T09:12:32;22.40;2.40
530;DHT22;251;48.704;9.210;2023-05-29T09:14:59;22.50;2.40
530;DHT22;251;48.704;9.210;2023-05-29T09:17:30;22.70;1.60
530;DHT22;251;48.704;9.210;2023-05-29T09:19:57;22.80;2.20
530;DHT22;251;48.704;9.210;2023-05-29T09:22:25;22.90;1.70
530;DHT22;251;48.704;9.210;2023-05-29T09:24:52;23.10;1.70
530;DHT22;251;48.704;9.210;2023-05-29T09:27:20;23.20;1.60
530;DHT22;251;48.704;9.210;2023-05-29T09:29:48;23.30;1.00
530;DHT22;251;48.704;9.210;2023-05-29T09:32:16;23.40;1.20
530;DHT22;251;48.704;9.210;2023-05-29T09:34:43;23.50;1.00
530;DHT22;251;48.704;9.210;2023-05-29T09:37:11;23.60;1.00
530;DHT22;251;48.704;9.210;2023-05-29T09:39:47;23.90;1.40
530;DHT22;251;48.704;9.210;2023-05-29T09:42:15;24.00;1.10
530;DHT22;251;48.704;9.210;2023-05-29T09:44:44;24.20;1.00
530;DHT22;251;48.704;9.210;2023-05-29T09:47:14;24.30;1.00
530;DHT22;251;48.704;9.210;2023-05-29T09:49:43;24.30;1.00
530;DHT22;251;48.704;9.210;2023-05-29T09:52:11;24.40;1.00
530;DHT22;251;48.704;9.210;2023-05-29T09:54:41;24.60;1.00
530;DHT22;251;48.704;9.210;2023-05-29T09:57:12;24.80;1.00
530;DHT22;251;48.704;9.210;2023-05-29T09:59:41;25.00;1.00
530;DHT22;251;48.704;9.210;2023-05-29T10:02:09;25.10;1.00
530;DHT22;251;48.704;9.210;2023-05-29T10:04:37;25.20;1.00
530;DHT22;251;48.704;9.210;2023-05-29T10:07:10;25.40;1.00
530;DHT22;251;48.704;9.210;2023-05-29T10:09:42;25.60;1.00
530;DHT22;251;48.704;9.210;2023-05-29T10:12:12;25.60;1.00
530;DHT22;251;48.704;9.210;2023-05-29T10:14:42;25.70;1.00
530;DHT22;251;48.704;9.210;2023-05-29T10:17:12;25.90;1.00
530;DHT22;251;48.704;9.210;2023-05-29T10:19:41;26.00;1.00
530;DHT22;251;48.704;9.210;2023-05-29T10:22:09;26.00;1.00
530;DHT22;251;48.704;9.210;2023-05-29T10:24:37;26.10;1.00
530;DHT22;251;48.704;9.210;2023-05-29T10:27:04;26.20;1.00
530;DHT22;251;48.704;9.210;2023-05-29T10:29:36;26.40;1.00
530;DHT22;251;48.704;9.210;2023-05-29T10:32:20;26.70;1.00
530;DHT22;251;48.704;9.210;2023-05-29T10:34:52;26.70;1.00
530;DHT22;251;48.704;9.210;2023-05-29T10:37:31;27.20;1.00
530;DHT22;251;48.704;9.210;2023-05-29T10:40:04;27.60;1.00
530;DHT22;251;48.704;9.210;2023-05-29T10:42:43;28.20;1.00
530;DHT22;251;48.704;9.210;2023-05-29T10:45:50;28.40;1.00
530;DHT22;251;48.704;9.210;2023-05-29T10:48:36;28.80;1.00
530;DHT22;251;48.704;9.210;2023-05-29T10:51:05;29.10;1.00
530;DHT22;251;48.704;9.210;2023-05-29T10:53:32;29.20;1.00
530;DHT22;251;48.704;9.210;2023-05-29T10:55:59;29.50;1.00
530;DHT22;251;48.704;9.210;2023-05-29T10:58:30;29.80;1.00
530;DHT22;251;48.704;9.210;2023-05-29T11:00:58;30.00;1.00
530;DHT22;251;48.704;9.210;2023-05-29T11:03:30;30.20;1.00
530;DHT22;251;48.704;9.210;2023-05-29T11:05:59;30.40;1.00
530;DHT22;251;48.704;9.210;2023-05-29T11:08:33;30.80;1.00
530;DHT22;251;48.704;9.210;2023-05-29T11:11:03;31.20;1.00
530;DHT22;251;48.704;9.210;2023-05-29T11:13:33;31.80;1.00
530;DHT22;251;48.704;9.210;2023-05-29T11:16:10;31.80;1.00
530;DHT22;251;48.704;9.210;2023-05-29T11:18:42;32.00;1.00
530;DHT22;251;48.704;9.210;2023-05-29T11:21:23;32.00;1.00
530;DHT22;251;48.704;9.210;2023-05-29T11:23:51;32.30;1.00
530;DHT22;251;48.704;9.210;2023-05-29T11:26:19;32.80;1.00
530;DHT22;251;48.704;9.210;2023-05-29T11:28:47;32.80;1.00
530;DHT22;251;48.704;9.210;2023-05-29T11:31:15;33.10;1.00
530;DHT22;251;48.704;9.210;2023-05-29T11:33:47;33.30;1.00
530;DHT22;251;48.704;9.210;2023-05-29T11:36:15;33.30;1.00
530;DHT22;251;48.704;9.210;2023-05-29T11:38:42;33.30;1.00
530;DHT22;251;48.704;9.210;2023-05-29T11:41:09;33.30;1.00
530;DHT22;251;48.704;9.210;2023-05-29T11:43:36;33.60;1.00
530;DHT22;251;48.704;9.210;2023-05-29T11:46:18;33.90;1.00
530;DHT22;251;48.704;9.210;2023-05-29T11:48:45;34.40;1.00
530;DHT22;251;48.704;9.210;2023-05-29T11:51:13;34.80;1.00
530;DHT22;251;48.704;9.210;2023-05-29T11:53:41;35.10;1.00
530;DHT22;251;48.704;9.210;2023-05-29T11:56:09;35.40;1.00
530;DHT22;251;48.704;9.210;2023-05-29T11:58:36;35.60;1.00
530;DHT22;251;48.704;9.210;2023-05-29T12:01:03;35.50;1.00
530;DHT22;251;48.704;9.210;2023-05-29T12:03:37;35.60;1.00
530;DHT22;251;48.704;9.210;2023-05-29T12:06:04;35.80;1.00
530;DHT22;251;48.704;9.210;2023-05-29T12:08:32;35.90;1.00
530;DHT22;251;48.704;9.210;2023-05-29T12:10:59;35.90;1.00
530;DHT22;251;48.704;9.210;2023-05-29T12:13:26;36.40;1.00
530;DHT22;251;48.704;9.210;2023-05-29T12:15:55;36.40;1.00
530;DHT22;251;48.704;9.210;2023-05-29T12:18:23;36.70;1.00
530;DHT22;251;48.704;9.210;2023-05-29T12:20:56;37.10;1.00
530;DHT22;251;48.704;9.210;2023-05-29T12:23:23;37.30;1.00
530;DHT22;251;48.704;9.210;2023-05-29T12:25:51;37.80;1.00
530;DHT22;251;48.704;9.210;2023-05-29T12:28:18;37.80;1.00
530;DHT22;251;48.704;9.210;2023-05-29T12:30:46;37.70;1.00
530;DHT22;251;48.704;9.210;2023-05-29T12:33:28;37.50;1.00
530;DHT22;251;48.704;9.210;2023-05-29T12:36:05;37.60;1.00
530;DHT22;251;48.704;9.210;2023-05-29T12:38:33;37.90;1.00
530;DHT22;251;48.704;9.210;2023-05-29T12:41:01;38.10;1.00
530;DHT22;251;48.704;9.210;2023-05-29T12:43:28;38.50;1.00
530;DHT22;251;48.704;9.210;2023-05-29T12:45:55;38.90;1.00
530;DHT22;251;48.704;9.210;2023-05-29T12:48:26;38.70;1.00
530;DHT22;251;48.704;9.210;2023-05-29T12:50:53;39.00;1.00
530;DHT22;251;48.704;9.210;2023-05-29T12:53:22;39.10;1.00
530;DHT22;251;48.704;9.210;2023-05-29T12:55:54;39.10;1.00
530;DHT22;251;48.704;9.210;2023-05-29T12:58:22;39.20;1.00
530;DHT22;251;48.704;9.210;2023-05-29T13:00:53;39.50;1.00
530;DHT22;251;48.704;9.210;2023-05-29T13:03:22;39.50;1.00
530;DHT22;251;48.704;9.210;2023-05-29T13:05:49;39.60;1.00
530;DHT22;251;48.704;9.210;2023-05-29T13:08:16;39.90;1.00
530;DHT22;251;48.704;9.210;2023-05-29T13:10:45;40.30;1.00
530;DHT22;251;48.704;9.210;2023-05-29T13:13:12;40.50;1.00
530;DHT22;251;48.704;9.210;2023-05-29T13:15:38;40.40;1.00
530;DHT22;251;48.704;9.210;2023-05-29T13:18:06;40.20;1.00
530;DHT22;251;48.704;9.210;2023-05-29T13:20:32;40.30;1.00
530;DHT22;251;48.704;9.210;2023-05-29T13:22:59;40.30;1.00
530;DHT22;251;48.704;9.210;2023-05-29T13:25:26;40.60;1.00
530;DHT22;251;48.704;9.210;2023-05-29T13:27:55;40.60;1.00
530;DHT22;251;48.704;9.210;2023-05-29T13:30:21;40.90;1.00
530;DHT22;251;48.704;9.210;2023-05-29T13:32:49;40.30;1.00
530;DHT22;251;48.704;9.210;2023-05-29T13:35:16;40.60;1.00
530;DHT22;251;48.704;9.210;2023-05-29T13:37:43;40.20;1.00
530;DHT22;251;48.704;9.210;2023-05-29T13:40:10;40.00;1.00
530;DHT22;251;48.704;9.210;2023-05-29T13:42:39;40.30;1.00
530;DHT22;251;48.704;9.210;2023-05-29T13:45:08;40.30;1.00
530;DHT22;251;48.704;9.210;2023-05-29T13:47:35;40.60;1.00
530;DHT22;251;48.704;9.210;2023-05-29T13:50:02;40.70;1.00
530;DHT22;251;48.704;9.210;2023-05-29T13:52:29;40.60;1.00
530;DHT22;251;48.704;9.210;2023-05-29T13:54:56;40.60;1.00
530;DHT22;251;48.704;9.210;2023-05-29T13:57:25;40.60;1.00
530;DHT22;251;48.704;9.210;2023-05-29T14:47:38;37.40;1.00
530;DHT22;251;48.704;9.210;2023-05-29T14:50:06;37.10;1.00
530;DHT22;251;48.704;9.210;2023-05-29T14:52:34;36.90;1.00
530;DHT22;251;48.704;9.210;2023-05-29T14:55:02;36.90;1.00
530;DHT22;251;48.704;9.210;2023-05-29T14:57:28;37.10;1.00
530;DHT22;251;48.704;9.210;2023-05-29T14:59:58;37.40;1.00
530;DHT22;251;48.704;9.210;2023-05-29T15:02:25;37.40;1.00
530;DHT22;251;48.704;9.210;2023-05-29T15:04:53;37.30;1.00
530;DHT22;251;48.704;9.210;2023-05-29T15:07:21;37.20;1.00
530;DHT22;251;48.704;9.210;2023-05-29T15:09:48;37.00;1.00
530;DHT22;251;48.704;9.210;2023-05-29T15:12:15;36.60;1.00
530;DHT22;251;48.704;9.210;2023-05-29T15:14:42;36.40;1.00
530;DHT22;251;48.704;9.210;2023-05-29T15:17:08;36.30;1.00
530;DHT22;251;48.704;9.210;2023-05-29T15:19:35;36.40;1.00
530;DHT22;251;48.704;9.210;2023-05-29T15:22:04;36.50;1.00
530;DHT22;251;48.704;9.210;2023-05-29T15:24:31;36.40;1.00
530;DHT22;251;48.704;9.210;2023-05-29T15:26:58;36.80;1.00
530;DHT22;251;48.704;9.210;2023-05-29T15:29:24;37.10;1.00
530;DHT22;251;48.704;9.210;2023-05-29T15:31:51;37.20;1.00
530;DHT22;251;48.704;9.210;2023-05-29T15:34:18;37.60;1.00
530;DHT22;251;48.704;9.210;2023-05-29T15:36:46;38.10;1.00
530;DHT22;251;48.704;9.210;2023-05-29T15:39:14;38.20;1.00
530;DHT22;251;48.704;9.210;2023-05-29T15:41:41;38.30;1.00
530;DHT22;251;48.704;9.210;2023-05-29T15:44:08;38.30;1.00
530;DHT22;251;48.704;9.210;2023-05-29T15:46:35;38.50;1.00
530;DHT22;251;48.704;9.210;2023-05-29T15:49:02;39.00;1.00
530;DHT22;251;48.704;9.210;2023-05-29T15:51:28;39.40;1.00
530;DHT22;251;48.704;9.210;2023-05-29T15:53:55;39.70;1.00
530;DHT22;251;48.704;9.210;2023-05-29T15:56:24;40.00;1.00
530;DHT22;251;48.704;9.210;2023-05-29T15:58:54;39.90;1.00
530;DHT22;251;48.704;9.210;2023-05-29T16:01:20;39.80;1.00
530;DHT22;251;48.704;9.210;2023-05-29T16:03:47;40.00;1.00
530;DHT22;251;48.704;9.210;2023-05-29T16:06:14;40.30;1.00
530;DHT22;251;48.704;9.210;2023-05-29T16:08:41;40.50;1.00
530;DHT22;251;48.704;9.210;2023-05-29T16:11:08;40.60;1.00
530;DHT22;251;48.704;9.210;2023-05-29T16:13:36;40.90;1.00
530;DHT22;251;48.704;9.210;2023-05-29T16:16:03;40.60;1.00
530;DHT22;251;48.704;9.210;2023-05-29T16:18:29;40.50;1.00
530;DHT22;251;48.704;9.210;2023-05-29T16:20:56;40.30;1.00
530;DHT22;251;48.704;9.210;2023-05-29T16:23:23;40.30;1.00
530;DHT22;251;48.704;9.210;2023-05-29T16:25:51;40.20;1.00
530;DHT22;251;48.704;9.210;2023-05-29T16:28:18;40.10;1.00
530;DHT22;251;48.704;9.210;2023-05-29T16:30:46;40.00;1.00
530;DHT22;251;48.704;9.210;2023-05-29T16:33:13;39.90;1.00
530;DHT22;251;48.704;9.210;2023-05-29T16:35:40;39.80;1.00
530;DHT22;251;48.704;9.210;2023-05-29T16:38:07;39.80;1.00
530;DHT22;251;48.704;9.210;2023-05-29T16:40:34;39.70;1.00
530;DHT22;251;48.704;9.210;2023-05-29T16:43:01;39.70;1.00
530;DHT22;251;48.704;9.210;2023-05-29T16:45:28;39.10;1.00
530;DHT22;251;48.704;9.210;2023-05-29T16:47:56;38.80;1.00
530;DHT22;251;48.704;9.210;2023-05-29T16:50:23;38.50;1.00
530;DHT22;251;48.704;9.210;2023-05-29T16:52:50;38.40;1.00
530;DHT22;251;48.704;9.210;2023-05-29T16:55:16;38.20;1.00
530;DHT22;251;48.704;9.210;2023-05-29T16:57:43;38.10;1.00
530;DHT22;251;48.704;9.210;2023-05-29T17:00:11;38.10;1.00
530;DHT22;251;48.704;9.210;2023-05-29T17:02:38;38.00;1.00
530;DHT22;251;48.704;9.210;2023-05-29T17:05:07;37.80;1.00
530;DHT22;251;48.704;9.210;2023-05-29T17:07:33;37.70;1.00
530;DHT22;251;48.704;9.210;2023-05-29T17:10:00;37.60;1.00
530;DHT22;251;48.704;9.210;2023-05-29T17:12:27;37.20;1.00
530;DHT22;251;48.704;9.210;2023-05-29T17:14:54;37.00;1.00
530;DHT22;251;48.704;9.210;2023-05-29T17:17:20;37.00;1.00
530;DHT22;251;48.704;9.210;2023-05-29T17:19:47;37.00;1.00
530;DHT22;251;48.704;9.210;2023-05-29T17:22:15;36.70;1.00
530;DHT22;251;48.704;9.210;2023-05-29T17:24:42;36.30;1.00
530;DHT22;251;48.704;9.210;2023-05-29T17:27:09;36.00;1.00
530;DHT22;251;48.704;9.210;2023-05-29T17:29:36;35.90;1.00
530;DHT22;251;48.704;9.210;2023-05-29T17:32:03;35.70;1.00
530;DHT22;251;48.704;9.210;2023-05-29T17:34:32;35.60;1.00
530;DHT22;251;48.704;9.210;2023-05-29T17:36:59;35.40;1.00
530;DHT22;251;48.704;9.210;2023-05-29T17:39:28;35.30;1.00
530;DHT22;251;48.704;9.210;2023-05-29T17:41:54;35.20;1.00